Aberchirder, United Kingdom
Current Conditions -  °F | °C
As of 1:50 AM on Saturday 29 Nov 2014 (Local Time) from EGQS Reporting Station
Broken Clouds Broken Clouds  
Wind Chill: 50°   Ceiling: 1800
Heat Index: 50°   Visibility: 6mi
Dew Point: 46°   Wind: 7mph
Humidity: 87%   Direction: 110°ESE
Pressure: 29.88"   Gusts: NA
Location:  57.56°N, 2.63°W
Report Text: EGQS 290150Z 11006KT 9999 SCT014 BKN018 10/08 Q1012 GRN TEMPO FEW014 WHT
Loading
Personal Weather Stations






























Interactive Weather Map New forecast layout! Learn more

10-Day Weather Forecast

Advertisements
Track Severe Weather on mobile